createdAt,value
2023-05-19T00:01:02.961Z,27.57
2023-05-19T00:03:31.776Z,28.33
2023-05-19T00:06:00.673Z,27.20
2023-05-19T00:08:32.486Z,27.00
2023-05-19T00:11:01.104Z,27.60
2023-05-19T00:13:30.158Z,28.20
2023-05-19T00:16:00.216Z,29.20
2023-05-19T00:18:29.673Z,29.93
2023-05-19T00:20:58.596Z,30.20
2023-05-19T00:23:26.963Z,30.10
2023-05-19T00:25:54.981Z,28.67
2023-05-19T00:28:22.996Z,28.80
2023-05-19T00:30:52.085Z,30.37
2023-05-19T00:33:21.397Z,29.97
2023-05-19T00:35:49.547Z,28.67
2023-05-19T00:38:17.674Z,28.73
2023-05-19T00:40:46.371Z,29.47
2023-05-19T00:43:14.462Z,29.73
2023-05-19T00:45:42.509Z,28.67
2023-05-19T00:48:10.589Z,29.90
2023-05-19T00:50:40.708Z,29.27
2023-05-19T00:53:09.423Z,29.40
2023-05-19T00:55:40.433Z,29.80
2023-05-19T00:58:11.056Z,30.70
2023-05-19T01:00:39.605Z,29.30
2023-05-19T01:03:11.521Z,28.33
2023-05-19T01:05:44.663Z,29.97
2023-05-19T01:08:13.065Z,29.30
2023-05-19T01:10:41.192Z,29.83
2023-05-19T01:13:09.983Z,28.33
2023-05-19T01:15:51.740Z,28.73
2023-05-19T01:18:27.187Z,29.97
2023-05-19T01:21:37.620Z,32.90
2023-05-19T01:24:24.278Z,30.17
2023-05-19T01:27:15.060Z,30.73
2023-05-19T01:29:49.318Z,31.60
2023-05-19T01:32:21.822Z,30.33
2023-05-19T01:34:51.939Z,29.20
2023-05-19T01:37:21.525Z,29.80
2023-05-19T01:39:52.212Z,29.50
2023-05-19T01:42:21.505Z,30.83
2023-05-19T01:44:51.209Z,29.00
2023-05-19T01:47:20.934Z,29.03
2023-05-19T01:49:48.939Z,29.10
2023-05-19T01:52:16.868Z,30.80
2023-05-19T01:54:45.090Z,29.10
2023-05-19T01:57:25.289Z,29.57
2023-05-19T02:00:05.531Z,29.43
2023-05-19T02:02:54.567Z,30.43
2023-05-19T02:05:35.020Z,33.13
2023-05-19T02:08:13.162Z,30.60
2023-05-19T02:10:48.456Z,29.67
2023-05-19T02:13:21.182Z,31.40
2023-05-19T02:15:51.190Z,30.67
2023-05-19T02:18:21.566Z,31.27
2023-05-19T02:20:52.202Z,29.47
2023-05-19T02:23:21.899Z,31.40
2023-05-19T02:25:49.962Z,31.43
2023-05-19T02:28:18.419Z,30.77
2023-05-19T02:30:46.364Z,31.07
2023-05-19T02:33:14.446Z,31.17
2023-05-19T02:35:45.839Z,30.73
2023-05-19T02:38:16.653Z,28.77
2023-05-19T02:40:44.612Z,27.60
2023-05-19T02:43:12.679Z,29.23
2023-05-19T02:45:41.444Z,29.83
2023-05-19T02:48:09.507Z,28.40
2023-05-19T02:50:38.396Z,28.87
2023-05-19T02:53:07.773Z,29.40
2023-05-19T02:55:36.615Z,27.87
2023-05-19T02:58:05.261Z,29.03
2023-05-19T03:00:33.532Z,28.30
2023-05-19T03:03:02.745Z,27.63
2023-05-19T03:05:31.098Z,27.90
2023-05-19T03:07:59.058Z,29.80
2023-05-19T03:10:28.691Z,27.23
2023-05-19T03:12:57.467Z,28.83
2023-05-19T03:15:25.437Z,28.53
2023-05-19T03:17:53.479Z,28.93
2023-05-19T03:20:21.645Z,27.83
2023-05-19T03:22:49.747Z,28.10
2023-05-19T03:25:18.027Z,27.30
2023-05-19T03:27:48.239Z,28.40
2023-05-19T03:30:16.684Z,26.80
2023-05-19T03:33:01.729Z,28.33
2023-05-19T03:35:30.086Z,29.57
2023-05-19T03:37:58.125Z,29.87
2023-05-19T03:40:27.284Z,28.23
2023-05-19T03:43:03.499Z,28.77
2023-05-19T03:45:33.143Z,27.60
2023-05-19T03:48:12.531Z,28.77
2023-05-19T03:51:09.452Z,29.07
2023-05-19T03:53:37.928Z,28.87
2023-05-19T03:56:07.430Z,28.17
2023-05-19T03:58:40.786Z,26.47
2023-05-19T04:01:08.795Z,25.47
2023-05-19T04:03:37.124Z,26.00
2023-05-19T04:06:06.922Z,26.23
2023-05-19T04:08:35.305Z,27.10
2023-05-19T04:11:04.777Z,26.03
2023-05-19T04:13:35.857Z,26.17
2023-05-19T04:16:04.281Z,28.63
2023-05-19T04:18:32.292Z,25.90
2023-05-19T04:21:00.349Z,26.53
2023-05-19T04:23:28.358Z,25.57
2023-05-19T04:25:57.100Z,26.20
2023-05-19T04:28:25.145Z,25.90
2023-05-19T04:30:54.802Z,25.50
2023-05-19T04:33:22.946Z,26.20
2023-05-19T04:35:51.655Z,24.40
2023-05-19T04:38:22.048Z,26.03
2023-05-19T04:40:51.980Z,24.53
2023-05-19T04:43:22.157Z,26.70
2023-05-19T04:45:51.430Z,25.03
2023-05-19T04:48:23.113Z,24.10
2023-05-19T04:50:53.130Z,23.87
2023-05-19T04:53:21.970Z,23.37
2023-05-19T04:55:50.925Z,23.67
2023-05-19T04:58:19.675Z,23.50
2023-05-19T05:00:48.274Z,23.43
2023-05-19T05:03:16.480Z,23.53
2023-05-19T05:05:45.988Z,21.73
2023-05-19T05:08:16.104Z,22.23
2023-05-19T05:10:44.675Z,21.43
2023-05-19T05:13:13.162Z,22.23
2023-05-19T05:15:41.712Z,21.37
2023-05-19T05:18:11.358Z,21.63
2023-05-19T05:20:40.930Z,21.37
2023-05-19T05:23:14.376Z,21.13
2023-05-19T05:25:45.410Z,21.67
2023-05-19T05:28:14.940Z,21.70
2023-05-19T05:30:44.927Z,21.40
2023-05-19T05:33:15.149Z,21.50
2023-05-19T05:35:43.238Z,21.23
2023-05-19T05:38:15.095Z,22.23
2023-05-19T05:40:43.654Z,21.40
2023-05-19T05:43:11.685Z,22.60
2023-05-19T05:45:46.691Z,21.97
2023-05-19T05:48:15.675Z,21.17
2023-05-19T05:50:45.265Z,21.33
2023-05-19T05:53:20.730Z,23.47
2023-05-19T05:55:53.588Z,25.23
2023-05-19T05:58:24.840Z,24.17
2023-05-19T06:00:57.477Z,24.90
2023-05-19T06:03:27.001Z,25.77
2023-05-19T06:05:56.870Z,26.07
2023-05-19T06:08:26.450Z,24.80
2023-05-19T06:10:54.474Z,24.93
2023-05-19T06:13:24.102Z,23.40
2023-05-19T06:15:53.062Z,21.80
2023-05-19T06:18:26.044Z,21.97
2023-05-19T06:20:54.483Z,21.53
2023-05-19T06:23:22.577Z,21.87
2023-05-19T06:25:52.122Z,23.87
2023-05-19T06:28:20.580Z,26.63
2023-05-19T06:30:48.533Z,31.50
2023-05-19T06:33:28.839Z,33.03
2023-05-19T06:35:57.373Z,30.63
2023-05-19T06:38:25.789Z,27.33
2023-05-19T06:40:55.250Z,27.10
2023-05-19T06:43:25.548Z,25.70
2023-05-19T06:45:56.078Z,22.97
2023-05-19T06:48:26.382Z,22.40
2023-05-19T06:50:54.924Z,21.37
2023-05-19T06:53:24.958Z,19.07
2023-05-19T06:55:59.864Z,18.13
2023-05-19T06:58:31.522Z,17.93
2023-05-19T07:01:00.973Z,19.00
2023-05-19T07:03:34.547Z,18.87
2023-05-19T07:06:03.735Z,20.23
2023-05-19T07:08:32.942Z,19.10
2023-05-19T07:11:04.742Z,19.70
2023-05-19T07:13:33.449Z,19.27
2023-05-19T07:16:01.538Z,17.80
2023-05-19T07:18:31.835Z,18.90
2023-05-19T07:21:00.020Z,19.60
2023-05-19T07:23:28.486Z,19.07
2023-05-19T07:25:57.255Z,20.23
2023-05-19T07:28:26.694Z,19.17
2023-05-19T07:30:54.726Z,20.60
2023-05-19T07:33:22.700Z,20.77
2023-05-19T07:35:50.740Z,21.50
2023-05-19T07:38:18.735Z,20.47
2023-05-19T07:40:46.755Z,21.47
2023-05-19T07:43:14.708Z,21.27
2023-05-19T07:45:44.148Z,21.33
2023-05-19T07:48:12.113Z,22.37
2023-05-19T07:50:40.111Z,21.07
2023-05-19T07:53:08.035Z,20.70
2023-05-19T07:55:36.230Z,20.90
2023-05-19T07:58:04.175Z,20.23
2023-05-19T08:00:32.451Z,21.53
2023-05-19T08:03:02.282Z,22.33
2023-05-19T08:05:30.894Z,23.30
2023-05-19T08:07:58.826Z,20.93
2023-05-19T08:10:27.049Z,22.17
2023-05-19T08:12:54.992Z,19.80
2023-05-19T08:15:25.278Z,20.33
2023-05-19T08:17:53.299Z,21.10
2023-05-19T08:20:24.246Z,20.70
2023-05-19T08:22:52.475Z,18.47
2023-05-19T08:25:20.737Z,20.03
2023-05-19T08:27:48.814Z,19.03
2023-05-19T08:30:16.848Z,20.47
2023-05-19T08:32:44.975Z,22.60
2023-05-19T08:35:13.013Z,23.17
2023-05-19T08:37:42.415Z,22.57
2023-05-19T08:40:16.971Z,21.80
2023-05-19T08:42:45.034Z,19.43
2023-05-19T08:45:13.647Z,20.23
2023-05-19T08:47:43.121Z,19.70
2023-05-19T08:50:14.177Z,24.07
2023-05-19T08:52:53.123Z,26.80
2023-05-19T08:55:33.869Z,29.17
2023-05-19T08:58:04.556Z,28.60
2023-05-19T09:00:34.736Z,26.10
2023-05-19T09:03:17.725Z,26.07
2023-05-19T09:05:53.167Z,25.87
2023-05-19T09:08:22.676Z,24.87
2023-05-19T09:10:50.972Z,25.13
2023-05-19T09:13:19.430Z,24.77
2023-05-19T09:15:48.005Z,22.87
2023-05-19T09:18:16.042Z,23.23
2023-05-19T09:20:46.019Z,22.80
2023-05-19T09:23:16.067Z,22.40
2023-05-19T09:25:52.920Z,21.10
2023-05-19T09:28:27.970Z,19.47
2023-05-19T09:31:01.094Z,20.33
2023-05-19T09:33:29.623Z,20.90
2023-05-19T09:35:58.336Z,21.10
2023-05-19T09:38:26.798Z,21.50
2023-05-19T09:40:58.369Z,20.53
2023-05-19T09:43:29.058Z,19.60
2023-05-19T09:46:00.217Z,20.43
2023-05-19T09:48:28.739Z,24.10
2023-05-19T09:50:57.180Z,21.63
2023-05-19T09:53:26.158Z,21.63
2023-05-19T09:55:58.805Z,21.23
2023-05-19T09:58:27.910Z,22.17
2023-05-19T10:00:57.427Z,21.43
2023-05-19T10:03:26.349Z,21.80
2023-05-19T10:05:54.790Z,21.77
2023-05-19T10:08:26.552Z,20.07
2023-05-19T10:10:55.086Z,24.00
2023-05-19T10:13:25.366Z,20.57
2023-05-19T10:15:59.328Z,21.07
2023-05-19T10:18:29.432Z,22.50
2023-05-19T10:20:58.578Z,20.30
2023-05-19T10:23:26.995Z,20.73
2023-05-19T10:25:57.555Z,20.40
2023-05-19T10:28:36.000Z,25.10
2023-05-19T10:31:07.736Z,20.63
2023-05-19T10:33:48.232Z,21.67
2023-05-19T10:36:40.151Z,23.53
2023-05-19T10:39:17.657Z,20.20
2023-05-19T10:41:54.744Z,23.00
2023-05-19T10:44:35.213Z,21.40
2023-05-19T10:47:03.359Z,21.37
2023-05-19T10:49:36.537Z,21.30
2023-05-19T10:52:05.357Z,22.23
2023-05-19T10:54:43.256Z,19.93
2023-05-19T10:57:15.677Z,20.60
2023-05-19T10:59:45.662Z,22.13
2023-05-19T11:02:41.558Z,20.53
2023-05-19T11:05:11.342Z,21.73
2023-05-19T11:07:43.378Z,21.53
2023-05-19T11:10:12.348Z,20.87
2023-05-19T11:12:45.778Z,19.87
2023-05-19T11:15:16.540Z,21.37
2023-05-19T11:17:48.449Z,21.67
2023-05-19T11:20:24.020Z,23.10
2023-05-19T11:23:08.597Z,21.50
2023-05-19T11:25:47.867Z,23.80
2023-05-19T11:28:17.540Z,20.80
2023-05-19T11:30:50.284Z,21.00
2023-05-19T11:33:19.651Z,21.30
2023-05-19T11:35:49.352Z,22.83
2023-05-19T11:38:18.145Z,21.43
2023-05-19T11:40:47.200Z,20.50
2023-05-19T11:43:16.191Z,21.47
2023-05-19T11:45:44.318Z,21.10
2023-05-19T11:48:15.961Z,20.20
2023-05-19T11:50:44.871Z,24.60
2023-05-19T11:53:14.561Z,20.87
2023-05-19T11:55:47.377Z,21.50
2023-05-19T11:58:16.168Z,22.33
2023-05-19T12:00:46.023Z,22.77
2023-05-19T12:03:15.999Z,21.30
2023-05-19T12:05:47.038Z,21.17
2023-05-19T12:08:15.791Z,21.53
2023-05-19T12:10:43.729Z,21.73
2023-05-19T12:13:11.935Z,22.87
2023-05-19T12:15:40.046Z,21.33
2023-05-19T12:18:08.537Z,22.47
2023-05-19T12:20:38.179Z,21.40
2023-05-19T12:23:06.866Z,20.50
2023-05-19T12:25:35.321Z,20.33
2023-05-19T12:28:04.471Z,21.13
2023-05-19T12:30:34.441Z,21.40
2023-05-19T12:33:03.892Z,21.17
2023-05-19T12:35:33.499Z,21.53
2023-05-19T12:38:05.619Z,21.57
2023-05-19T12:40:34.999Z,22.73
2023-05-19T12:43:03.417Z,19.83
2023-05-19T12:45:35.674Z,22.30
2023-05-19T12:48:05.277Z,23.27
2023-05-19T12:50:34.397Z,21.80
2023-05-19T12:53:02.787Z,22.00
2023-05-19T12:55:38.034Z,20.67
2023-05-19T12:58:08.283Z,19.90
2023-05-19T13:00:41.953Z,20.20
2023-05-19T13:03:17.452Z,22.73
2023-05-19T13:05:47.948Z,21.07
2023-05-19T13:08:17.405Z,22.27
2023-05-19T13:10:49.070Z,20.33
2023-05-19T13:13:17.576Z,20.20
2023-05-19T13:15:48.741Z,20.00
2023-05-19T13:18:17.499Z,20.30
2023-05-19T13:20:46.674Z,21.57
2023-05-19T13:23:15.303Z,26.20
2023-05-19T13:25:43.924Z,21.10
2023-05-19T13:28:13.514Z,19.60
2023-05-19T13:30:42.503Z,19.73
2023-05-19T13:33:11.457Z,21.83
2023-05-19T13:35:39.538Z,20.57
2023-05-19T13:38:09.595Z,20.53
2023-05-19T13:40:38.566Z,21.63
2023-05-19T13:43:07.297Z,21.33
2023-05-19T13:45:36.826Z,26.60
2023-05-19T13:48:07.210Z,21.93
2023-05-19T13:50:36.050Z,19.73
2023-05-19T13:53:04.548Z,21.33
2023-05-19T13:55:32.868Z,22.93
2023-05-19T13:58:00.937Z,20.60
2023-05-19T14:00:29.024Z,22.47
2023-05-19T14:02:59.308Z,21.93
2023-05-19T14:05:28.794Z,19.60
2023-05-19T14:07:57.065Z,20.73
2023-05-19T14:10:25.215Z,21.67
2023-05-19T14:15:26.729Z,21.33
2023-05-19T14:17:54.780Z,20.23
2023-05-19T14:20:24.203Z,20.90
2023-05-19T14:22:52.141Z,21.27
2023-05-19T14:25:20.454Z,19.40
2023-05-19T14:27:48.517Z,19.27
2023-05-19T14:30:16.540Z,21.57
2023-05-19T14:32:44.487Z,21.77
2023-05-19T14:35:12.626Z,21.33
2023-05-19T14:37:42.047Z,21.40
2023-05-19T14:40:10.875Z,20.57
2023-05-19T14:42:38.917Z,20.73
2023-05-19T14:45:07.839Z,27.10
2023-05-19T14:47:35.817Z,20.90
2023-05-19T14:50:03.820Z,20.37
2023-05-19T14:52:31.782Z,22.50
2023-05-19T14:55:01.124Z,21.60
2023-05-19T14:57:29.202Z,21.43
2023-05-19T14:59:57.129Z,22.13
2023-05-19T15:02:27.429Z,23.03
2023-05-19T15:04:56.656Z,23.53
2023-05-19T15:07:24.634Z,24.90
2023-05-19T15:09:52.680Z,22.57
2023-05-19T15:12:22.096Z,25.33
2023-05-19T15:14:51.023Z,22.97
2023-05-19T15:17:19.093Z,23.60
2023-05-19T15:19:47.342Z,22.13
2023-05-19T15:22:15.267Z,21.20
2023-05-19T15:24:43.402Z,20.87
2023-05-19T15:27:11.576Z,20.83
2023-05-19T15:29:40.995Z,19.83
2023-05-19T15:32:09.943Z,18.87
2023-05-19T15:34:37.925Z,20.77
2023-05-19T15:37:06.400Z,20.60
2023-05-19T15:39:34.916Z,20.27
2023-05-19T15:42:03.038Z,22.43
2023-05-19T15:44:31.318Z,20.60
2023-05-19T15:47:00.762Z,21.33
2023-05-19T15:49:28.756Z,22.37
2023-05-19T15:51:56.816Z,22.10
2023-05-19T15:54:25.191Z,21.90
2023-05-19T15:56:53.231Z,19.97
2023-05-19T15:59:21.156Z,20.43
2023-05-19T16:01:50.581Z,21.60
2023-05-19T16:04:22.236Z,21.93
2023-05-19T16:06:50.451Z,21.80
2023-05-19T16:09:18.493Z,22.40
2023-05-19T16:11:46.586Z,23.30
2023-05-19T16:14:14.565Z,21.50
2023-05-19T16:16:44.417Z,22.10
2023-05-19T16:19:12.575Z,20.80
2023-05-19T16:21:41.987Z,22.17
2023-05-19T16:24:09.994Z,21.17
2023-05-19T16:26:37.960Z,21.37
2023-05-19T16:29:06.061Z,23.87
2023-05-19T16:31:34.042Z,21.77
2023-05-19T16:34:02.096Z,22.70
2023-05-19T16:36:30.093Z,21.63
2023-05-19T16:38:59.559Z,21.37
2023-05-19T16:41:27.643Z,21.03
2023-05-19T16:43:55.681Z,19.57
2023-05-19T16:46:23.703Z,18.97
2023-05-19T16:48:51.786Z,19.63
2023-05-19T16:51:19.787Z,19.47
2023-05-19T16:53:47.825Z,19.30
2023-05-19T16:56:17.261Z,20.70
2023-05-19T16:58:45.335Z,20.40
2023-05-19T17:01:13.450Z,19.90
2023-05-19T17:03:41.756Z,19.37
2023-05-19T17:06:09.668Z,19.67
2023-05-19T17:08:37.717Z,20.67
2023-05-19T17:11:06.483Z,19.83
2023-05-19T17:13:36.328Z,20.53
2023-05-19T17:16:04.574Z,18.93
2023-05-19T17:18:32.660Z,18.27
2023-05-19T17:21:03.532Z,20.27
2023-05-19T17:23:32.291Z,19.37
2023-05-19T17:26:00.321Z,20.17
2023-05-19T17:28:29.218Z,20.00
2023-05-19T17:30:58.788Z,21.57
2023-05-19T17:33:26.972Z,21.40
2023-05-19T17:35:54.968Z,18.80
2023-05-19T17:38:23.068Z,19.33
2023-05-19T17:40:50.976Z,18.93
2023-05-19T17:43:18.931Z,19.53
2023-05-19T17:45:46.862Z,17.97
2023-05-19T17:48:16.328Z,19.57
2023-05-19T17:50:44.360Z,19.13
2023-05-19T17:53:12.865Z,19.93
2023-05-19T17:55:45.194Z,20.07
2023-05-19T17:58:13.613Z,19.10
2023-05-19T18:00:41.923Z,19.40
2023-05-19T18:03:11.302Z,18.90
2023-05-19T18:05:43.185Z,18.73
2023-05-19T18:08:13.124Z,19.33
2023-05-19T18:10:42.867Z,18.13
2023-05-19T18:13:13.903Z,19.23
2023-05-19T18:15:42.036Z,19.30
2023-05-19T18:18:10.881Z,19.60
2023-05-19T18:20:44.300Z,19.70
2023-05-19T18:23:12.976Z,20.00
2023-05-19T18:25:40.908Z,18.93
2023-05-19T18:28:09.246Z,17.97
2023-05-19T18:30:37.282Z,19.07
2023-05-19T18:33:07.158Z,18.33
2023-05-19T18:35:35.725Z,18.63
2023-05-19T18:38:05.018Z,18.87
2023-05-19T18:40:33.440Z,17.30
2023-05-19T18:43:01.605Z,17.03
2023-05-19T18:45:31.993Z,16.63
2023-05-19T18:47:59.972Z,17.57
2023-05-19T18:50:28.233Z,16.43
2023-05-19T18:52:56.129Z,16.73
2023-05-19T18:55:25.615Z,16.50
2023-05-19T18:57:54.100Z,15.10
2023-05-19T19:00:22.212Z,16.50
2023-05-19T19:02:50.192Z,16.37
2023-05-19T19:05:18.344Z,16.90
2023-05-19T19:07:46.357Z,15.53
2023-05-19T19:10:15.122Z,17.90
2023-05-19T19:12:44.436Z,17.00
2023-05-19T19:15:12.855Z,16.80
2023-05-19T19:17:41.060Z,16.60
2023-05-19T19:20:10.210Z,16.03
2023-05-19T19:22:38.197Z,16.33
2023-05-19T19:25:06.833Z,15.90
2023-05-19T19:27:35.612Z,16.33
2023-05-19T19:30:05.610Z,17.47
2023-05-19T19:32:33.654Z,16.47
2023-05-19T19:35:01.794Z,16.93
2023-05-19T19:37:29.765Z,16.83
2023-05-19T19:39:57.712Z,16.47
2023-05-19T19:42:25.713Z,16.73
2023-05-19T19:44:56.095Z,16.30
2023-05-19T19:47:25.547Z,16.43
2023-05-19T19:49:53.522Z,17.30
2023-05-19T19:52:21.627Z,16.83
2023-05-19T19:54:49.560Z,17.50
2023-05-19T19:57:17.612Z,17.33
2023-05-19T19:59:45.681Z,16.80
2023-05-19T20:02:13.768Z,17.20
2023-05-19T20:04:43.109Z,15.73
2023-05-19T20:07:11.188Z,16.90
2023-05-19T20:09:39.311Z,16.73
2023-05-19T20:12:08.085Z,17.43
2023-05-19T20:14:36.587Z,16.97
2023-05-19T20:17:04.759Z,17.37
2023-05-19T20:19:32.755Z,17.60
2023-05-19T20:22:02.204Z,16.63
2023-05-19T20:24:30.162Z,16.50
2023-05-19T20:26:58.077Z,18.53
2023-05-19T20:29:26.116Z,17.30
2023-05-19T20:31:55.491Z,17.67
2023-05-19T20:34:24.694Z,18.13
2023-05-19T20:36:52.638Z,18.73
2023-05-19T20:39:22.228Z,17.83
2023-05-19T20:41:50.317Z,18.50
2023-05-19T20:44:18.256Z,17.33
2023-05-19T20:46:46.298Z,18.13
2023-05-19T20:49:14.284Z,17.73
2023-05-19T20:51:42.345Z,17.77
2023-05-19T20:54:10.306Z,19.23
2023-05-19T20:56:39.712Z,20.53
2023-05-19T20:59:07.744Z,19.90
2023-05-19T21:01:35.742Z,18.80
2023-05-19T21:04:06.713Z,20.03
2023-05-19T21:06:35.339Z,20.60
2023-05-19T21:09:05.271Z,21.47
2023-05-19T21:11:33.336Z,19.90
2023-05-19T21:14:03.982Z,21.30
2023-05-19T21:16:33.899Z,20.27
2023-05-19T21:19:02.367Z,20.00
2023-05-19T21:21:31.613Z,20.17
2023-05-19T21:23:59.749Z,21.57
2023-05-19T21:26:27.670Z,20.20
2023-05-19T21:28:55.632Z,19.77
2023-05-19T21:31:24.962Z,21.20
2023-05-19T21:33:53.032Z,20.97
2023-05-19T21:36:20.966Z,20.17
2023-05-19T21:38:48.933Z,20.77
2023-05-19T21:41:16.904Z,20.83
2023-05-19T21:43:45.326Z,20.60
2023-05-19T21:46:14.007Z,19.97
2023-05-19T21:48:43.342Z,21.73
2023-05-19T21:51:11.538Z,20.43
2023-05-19T21:53:39.474Z,20.50
2023-05-19T21:56:07.711Z,21.57
2023-05-19T21:58:35.658Z,20.60
2023-05-19T22:01:05.749Z,20.00
2023-05-19T22:03:33.775Z,21.23
2023-05-19T22:06:03.346Z,20.53
2023-05-19T22:08:31.305Z,20.20
2023-05-19T22:10:59.354Z,20.30
2023-05-19T22:13:27.411Z,19.07
2023-05-19T22:15:55.410Z,20.10
2023-05-19T22:18:23.648Z,21.80
2023-05-19T22:20:51.569Z,20.57
2023-05-19T22:23:20.962Z,18.93
2023-05-19T22:25:49.028Z,19.50
2023-05-19T22:28:17.021Z,19.90
2023-05-19T22:30:45.001Z,19.07
2023-05-19T22:33:13.265Z,18.83
2023-05-19T22:35:41.352Z,19.83
2023-05-19T22:38:10.668Z,20.40
2023-05-19T22:40:40.267Z,20.23
2023-05-19T22:43:08.321Z,20.30
2023-05-19T22:45:37.086Z,20.50
2023-05-19T22:48:05.951Z,20.87
2023-05-19T22:50:33.922Z,20.80
2023-05-19T22:53:02.090Z,21.90
2023-05-19T22:55:30.024Z,23.13
2023-05-19T22:58:00.522Z,21.90
2023-05-19T23:00:28.498Z,21.80
2023-05-19T23:02:58.186Z,20.93
2023-05-19T23:05:26.350Z,23.60
2023-05-19T23:07:54.349Z,22.77
2023-05-19T23:10:22.347Z,23.90
2023-05-19T23:12:51.455Z,22.73
2023-05-19T23:15:21.061Z,24.50
2023-05-19T23:17:49.077Z,23.60
2023-05-19T23:20:17.205Z,24.00
2023-05-19T23:22:45.535Z,24.13
2023-05-19T23:25:14.378Z,25.07
2023-05-19T23:27:42.343Z,24.77
2023-05-19T23:30:10.797Z,25.00
2023-05-19T23:32:40.855Z,25.60
2023-05-19T23:35:13.420Z,25.27
2023-05-19T23:37:41.690Z,24.83
2023-05-19T23:40:10.314Z,24.27
2023-05-19T23:42:38.557Z,24.63
2023-05-19T23:45:07.465Z,26.73
2023-05-19T23:47:35.565Z,24.77
2023-05-19T23:50:05.449Z,24.23
2023-05-19T23:52:33.748Z,22.97
2023-05-19T23:55:03.316Z,27.23
2023-05-19T23:57:31.440Z,26.20
